Time;durP1;ratioP1;P1;durP2;ratioP2;P2;SDS_P1;SDS_P2;PMS_P1;PMS_P2;Temp;Humidity;BMP_temperature;BMP_pressure;BME280_temperature;BME280_humidity;BME280_pressure;Samples;Min_cycle;Max_cycle;Signal;HPM_P1;HPM_P2
2022/09/11 00:00:33;;;;;;;0.00;0.00;;;;;;;18.49;53.67;101231.88;7365215;19;20014;-61
2022/09/11 00:02:59;;;;;;;0.00;0.00;;;;;;;18.46;54.21;101226.75;7364270;19;20003;-61
2022/09/11 00:05:24;;;;;;;0.00;0.00;;;;;;;18.41;54.68;101234.88;7359012;19;20006;-62
2022/09/11 00:07:50;;;;;;;0.00;0.00;;;;;;;18.39;54.76;101237.59;7359206;19;20010;-62
2022/09/11 00:10:16;;;;;;;0.00;0.00;;;;;;;18.34;54.57;101236.94;7353067;19;20015;-61
2022/09/11 00:12:43;;;;;;;0.00;0.00;;;;;;;18.31;54.81;101239.75;7354198;19;20016;-61
2022/09/11 00:15:09;;;;;;;0.00;0.00;;;;;;;18.20;54.38;101223.53;7355632;19;20473;-62
2022/09/11 00:17:34;;;;;;;0.00;0.00;;;;;;;18.23;54.89;101231.28;7357618;19;20006;-62
2022/09/11 00:20:01;;;;;;;0.00;0.00;;;;;;;18.19;55.07;101235.00;7359723;19;20845;-61
2022/09/11 00:22:26;;;;;;;0.00;0.00;;;;;;;18.16;54.78;101240.44;7356074;19;20023;-61
2022/09/11 00:24:53;;;;;;;0.00;0.00;;;;;;;18.13;55.18;101240.56;7355642;19;20084;-61
2022/09/11 00:27:18;;;;;;;0.00;0.00;;;;;;;18.02;55.17;101222.56;7356977;19;20002;-61
2022/09/11 00:29:43;;;;;;;0.00;0.00;;;;;;;18.06;55.05;101239.16;7355850;19;20021;-61
2022/09/11 00:32:09;;;;;;;0.00;0.00;;;;;;;18.05;55.14;101242.72;7355890;19;20017;-61
2022/09/11 00:34:35;;;;;;;0.00;0.00;;;;;;;18.02;55.50;101238.44;7362117;19;20036;-61
2022/09/11 00:37:00;;;;;;;0.00;0.00;;;;;;;17.99;55.68;101233.25;7361602;19;20671;-61
2022/09/11 00:39:26;;;;;;;0.00;0.00;;;;;;;17.95;55.60;101231.72;7359541;19;20540;-61
2022/09/11 00:41:51;;;;;;;0.00;0.00;;;;;;;17.93;55.55;101227.41;7358609;19;20486;-61
2022/09/11 00:44:17;;;;;;;0.00;0.00;;;;;;;17.90;55.36;101228.41;7362715;19;20015;-61
2022/09/11 00:46:55;;;;;;;0.00;0.00;;;;;;;17.89;54.64;101221.41;7361400;19;20006;-61
2022/09/11 00:49:27;;;;;;;0.00;0.00;;;;;;;17.84;55.90;101226.91;7361563;19;20014;-62
2022/09/11 00:51:58;;;;;;;0.00;0.00;;;;;;;17.80;55.73;101225.31;7363251;19;20006;-61
2022/09/11 00:54:27;;;;;;;0.00;0.00;;;;;;;17.74;55.81;101207.13;7362886;19;20010;-62
2022/09/11 00:56:54;;;;;;;0.00;0.00;;;;;;;17.75;56.41;101208.81;7353817;19;20014;-62
2022/09/11 00:59:24;;;;;;;0.00;0.00;;;;;;;17.74;56.22;101207.13;7358994;19;20006;-62
2022/09/11 01:01:50;;;;;;;0.00;0.00;;;;;;;17.64;56.25;101195.22;7217151;19;2840388;-62
2022/09/11 01:04:15;;;;;;;0.00;0.00;;;;;;;17.67;56.73;101202.97;7358892;19;20018;-61
2022/09/11 01:06:42;;;;;;;0.00;0.00;;;;;;;17.62;56.71;101205.81;7361878;19;20014;-62
2022/09/11 01:09:07;;;;;;;0.00;0.00;;;;;;;17.61;56.74;101203.25;7362318;19;20040;-62
2022/09/11 01:11:50;;;;;;;0.00;0.00;;;;;;;17.58;57.00;101200.72;7364548;19;20015;-61
2022/09/11 01:14:28;;;;;;;0.00;0.00;;;;;;;17.58;56.09;101200.72;7361264;19;20003;-62
2022/09/11 01:17:07;;;;;;;0.00;0.00;;;;;;;17.55;57.08;101187.69;7363080;19;20654;-62
2022/09/11 01:20:00;;;;;;;0.00;0.00;;;;;;;17.54;56.19;101194.75;7359397;19;20033;-61
2022/09/11 01:23:02;;;;;;;0.00;0.00;;;;;;;17.53;57.00;101189.50;7261621;19;2004467;-61
2022/09/11 01:25:35;;;;;;;0.00;0.00;;;;;;;17.51;56.90;101188.75;7261677;19;2004166;-62
2022/09/11 01:28:10;;;;;;;0.03;0.03;;;;;;;17.49;56.95;101185.31;7358623;19;20010;-62
2022/09/11 01:30:40;;;;;;;0.00;0.00;;;;;;;17.47;57.63;101189.78;7363209;19;20018;-61
2022/09/11 01:33:47;;;;;;;0.00;0.00;;;;;;;17.46;56.03;101185.44;7359720;19;20396;-62
2022/09/11 01:36:20;;;;;;;0.00;0.00;;;;;;;17.42;56.86;101189.97;7261297;19;2004341;-61
2022/09/11 01:38:49;;;;;;;0.00;0.00;;;;;;;17.37;57.25;101182.25;7361874;19;20018;-61
2022/09/11 01:41:21;;;;;;;0.00;0.00;;;;;;;17.36;57.26;101191.13;7362515;19;20007;-61
2022/09/11 01:43:55;;;;;;;0.00;0.00;;;;;;;17.34;57.45;101192.13;7359800;19;20085;-61
2022/09/11 01:46:23;;;;;;;0.00;0.00;;;;;;;17.30;57.63;101186.09;7362804;19;20003;-61
2022/09/11 01:49:00;;;;;;;0.00;0.00;;;;;;;17.28;57.36;101182.66;7358770;19;20010;-62
2022/09/11 01:51:29;;;;;;;0.00;0.00;;;;;;;17.16;57.40;101172.63;7360271;19;20006;-61
2022/09/11 01:53:58;;;;;;;0.00;0.00;;;;;;;17.22;57.60;101175.00;7361307;19;20026;-61
2022/09/11 01:56:31;;;;;;;0.00;0.00;;;;;;;17.21;57.78;101175.94;7360183;19;20014;-62
2022/09/11 01:59:02;;;;;;;0.00;0.00;;;;;;;17.17;57.73;101165.56;7349361;19;20010;-61
2022/09/11 02:01:31;;;;;;;0.00;0.00;;;;;;;17.14;58.11;101169.22;7358298;19;20102;-61
2022/09/11 02:04:09;;;;;;;0.00;0.00;;;;;;;17.10;57.59;101154.44;7359794;19;20650;-62
2022/09/11 02:06:56;;;;;;;0.00;0.00;;;;;;;17.09;57.86;101147.44;7356318;19;20018;-62
2022/09/11 02:09:27;;;;;;;0.00;0.00;;;;;;;16.97;58.50;101130.31;7355137;19;20709;-62
2022/09/11 02:11:56;;;;;;;0.00;0.00;;;;;;;17.03;59.29;101145.03;7362579;19;20459;-61
2022/09/11 02:14:40;;;;;;;0.00;0.00;;;;;;;17.02;57.63;101138.06;7356511;19;20041;-62
2022/09/11 02:17:30;;;;;;;0.00;0.00;;;;;;;17.00;58.26;101140.75;7358854;19;20504;-61
2022/09/11 02:19:58;;;;;;;0.00;0.00;;;;;;;16.97;59.83;101132.97;7362505;19;20002;-62
2022/09/11 02:22:24;;;;;;;0.00;0.00;;;;;;;16.85;59.83;101118.53;7363902;19;20078;-61
2022/09/11 02:24:49;;;;;;;0.00;0.00;;;;;;;16.94;59.80;101129.63;7362159;19;20093;-62
2022/09/11 02:27:22;;;;;;;0.00;0.00;;;;;;;16.93;59.54;101123.50;7358891;19;20569;-61
2022/09/11 02:29:48;;;;;;;0.00;0.00;;;;;;;16.89;59.91;101119.25;7362275;19;20025;-62
2022/09/11 02:32:14;;;;;;;0.00;0.00;;;;;;;16.91;60.13;101119.19;7358949;19;20814;-61
2022/09/11 02:34:41;;;;;;;0.00;0.00;;;;;;;16.85;59.75;101107.97;7361876;19;20361;-62
2022/09/11 02:37:25;;;;;;;;;;;;;;;16.92;57.20;101105.06;7362563;19;20463;-61
2022/09/11 02:39:51;;;;;;;0.00;0.00;;;;;;;16.86;59.87;101096.50;7361897;19;20367;-62
2022/09/11 02:42:49;;;;;;;0.10;0.10;;;;;;;16.85;58.45;101092.13;7361818;19;20026;-62
2022/09/11 02:45:23;;;;;;;0.00;0.00;;;;;;;16.80;59.98;101085.34;7258381;19;2004549;-61
2022/09/11 02:48:10;;;;;;;0.00;0.00;;;;;;;16.77;59.48;101086.31;7361628;19;20023;-61
2022/09/11 02:50:57;;;;;;;0.00;0.00;;;;;;;16.72;59.61;101088.28;7361349;19;20014;-61
2022/09/11 02:53:26;;;;;;;;;;;;;;;16.70;57.67;101087.47;7359181;19;20022;-61
2022/09/11 02:56:04;;;;;;;0.00;0.00;;;;;;;16.62;60.07;101086.94;7350575;19;20237;-61
2022/09/11 02:58:45;;;;;;;0.00;0.00;;;;;;;16.60;58.55;101086.16;7356140;19;20011;-62
2022/09/11 03:01:11;;;;;;;0.00;0.00;;;;;;;16.54;59.95;101081.13;7357011;19;20007;-62
2022/09/11 03:03:38;;;;;;;0.00;0.00;;;;;;;16.51;59.72;101076.84;7350235;19;20830;-62
2022/09/11 03:06:05;;;;;;;0.00;0.00;;;;;;;16.48;59.79;101074.34;7359670;19;20006;-61
2022/09/11 03:08:31;;;;;;;0.00;0.00;;;;;;;16.45;58.87;101081.50;7355648;19;20768;-61
2022/09/11 03:10:56;;;;;;;0.00;0.00;;;;;;;16.42;58.96;101073.72;7361030;19;20010;-62
2022/09/11 03:13:21;;;;;;;0.00;0.00;;;;;;;16.39;59.54;101071.22;7365401;19;21446;-62
2022/09/11 03:15:47;;;;;;;0.00;0.00;;;;;;;16.37;59.78;101070.41;7365886;19;20019;-61
2022/09/11 03:18:14;;;;;;;0.00;0.00;;;;;;;16.30;60.56;101070.66;7358544;19;20006;-62
2022/09/11 03:20:45;;;;;;;0.00;0.00;;;;;;;16.30;60.90;101065.41;7365788;19;20790;-61
2022/09/11 03:23:11;;;;;;;0.00;0.00;;;;;;;16.27;62.16;101065.53;7366009;19;20011;-61
2022/09/11 03:25:36;;;;;;;0.00;0.00;;;;;;;16.26;63.12;101065.56;7366237;19;21714;-61
2022/09/11 03:28:03;;;;;;;0.00;0.00;;;;;;;16.17;64.00;101040.47;7362765;19;20028;-62
2022/09/11 03:30:29;;;;;;;0.00;0.00;;;;;;;16.21;63.85;101057.00;7362937;19;20388;-61
2022/09/11 03:32:54;;;;;;;0.00;0.00;;;;;;;16.16;64.33;101051.06;7368250;19;20018;-61
2022/09/11 03:35:20;;;;;;;0.00;0.00;;;;;;;16.19;64.69;101056.22;7365226;19;20041;-61
2022/09/11 03:37:46;;;;;;;0.00;0.00;;;;;;;16.17;65.39;101058.94;7367442;19;20566;-61
2022/09/11 03:40:12;;;;;;;0.00;0.00;;;;;;;16.15;65.29;101054.63;7362956;19;20022;-62
2022/09/11 03:42:37;;;;;;;0.00;0.00;;;;;;;16.15;64.98;101049.34;7365210;19;20035;-62
2022/09/11 03:45:03;;;;;;;0.00;0.00;;;;;;;16.14;65.11;101043.22;7367542;19;20013;-61
2022/09/11 03:47:28;;;;;;;0.00;0.00;;;;;;;16.14;65.79;101037.97;7361672;19;20021;-61
2022/09/11 03:49:54;;;;;;;0.00;0.00;;;;;;;16.14;65.36;101042.38;7367689;19;20007;-61
2022/09/11 03:52:21;;;;;;;0.00;0.00;;;;;;;16.13;65.90;101041.53;7364011;19;20014;-62
2022/09/11 03:54:47;;;;;;;0.00;0.00;;;;;;;16.13;65.56;101036.25;7367678;19;20027;-61
2022/09/11 03:57:12;;;;;;;0.00;0.00;;;;;;;16.13;65.97;101035.41;7358402;19;20027;-61
2022/09/11 03:59:38;;;;;;;0.00;0.00;;;;;;;16.11;65.90;101017.00;7362366;19;20019;-61
2022/09/11 04:02:03;;;;;;;0.00;0.00;;;;;;;16.12;66.37;101015.22;7367659;19;20013;-62
2022/09/11 04:04:29;;;;;;;0.00;0.00;;;;;;;16.12;66.38;101018.72;7360975;19;20088;-61
2022/09/11 04:06:54;;;;;;;0.00;0.00;;;;;;;16.11;65.45;101017.00;7365651;19;20031;-61
2022/09/11 04:09:20;;;;;;;0.00;0.00;;;;;;;16.09;66.18;101018.84;7365373;19;20007;-62
2022/09/11 04:11:45;;;;;;;0.00;0.00;;;;;;;16.09;66.29;101017.06;7364282;19;20022;-62
2022/09/11 04:14:11;;;;;;;0.00;0.00;;;;;;;16.08;66.40;101017.13;7367093;19;20051;-61
2022/09/11 04:16:37;;;;;;;0.00;0.00;;;;;;;16.07;66.20;101020.69;7365939;19;20018;-62
2022/09/11 04:19:02;;;;;;;0.00;0.00;;;;;;;16.06;66.80;101019.81;7362949;19;20505;-62
2022/09/11 04:21:28;;;;;;;0.00;0.00;;;;;;;16.05;66.64;101018.09;7358942;19;20007;-62
2022/09/11 04:23:55;;;;;;;0.00;0.00;;;;;;;16.05;66.62;101017.25;7366290;19;20034;-62
2022/09/11 04:26:24;;;;;;;0.00;0.00;;;;;;;16.02;66.62;101012.13;7363997;19;20022;-62
2022/09/11 04:28:49;;;;;;;0.00;0.00;;;;;;;15.99;66.76;101009.59;7364164;19;20584;-61
2022/09/11 04:31:16;;;;;;;0.00;0.00;;;;;;;16.00;67.13;101013.94;7364484;19;20015;-62
2022/09/11 04:33:42;;;;;;;0.00;0.00;;;;;;;15.96;66.73;101010.56;7360451;19;20014;-61
2022/09/11 04:36:11;;;;;;;0.00;0.00;;;;;;;15.99;66.96;100997.28;7367250;19;20485;-61
2022/09/11 04:38:40;;;;;;;0.00;0.00;;;;;;;15.83;66.94;100970.72;7361165;19;20036;-62
2022/09/11 04:41:06;;;;;;;0.00;0.00;;;;;;;15.82;67.19;100963.72;7365077;19;20017;-61
2022/09/11 04:43:34;;;;;;;0.00;0.00;;;;;;;15.96;67.53;100984.22;7365754;19;20010;-62
2022/09/11 04:46:04;;;;;;;0.00;0.00;;;;;;;15.99;66.78;100985.88;7362829;19;20015;-61
2022/09/11 04:48:29;;;;;;;0.00;0.00;;;;;;;15.95;67.57;100982.50;7366091;19;20744;-62
2022/09/11 04:51:20;;;;;;;0.00;0.00;;;;;;;15.99;64.91;100986.75;7362032;19;20006;-62
2022/09/11 04:53:47;;;;;;;0.00;0.00;;;;;;;15.97;67.94;100985.09;7259552;19;2004436;-62
2022/09/11 04:56:14;;;;;;;0.08;0.08;;;;;;;15.96;67.29;100991.28;7361746;19;20010;-62
2022/09/11 04:58:41;;;;;;;;;;;;;;;16.00;62.95;100990.22;7367075;19;20014;-62
2022/09/11 05:01:08;;;;;;;0.00;0.00;;;;;;;15.99;67.61;100991.16;7362124;19;19921;-61
2022/09/11 05:03:34;;;;;;;0.00;0.00;;;;;;;15.97;67.36;100993.88;7362788;19;20014;-61
2022/09/11 05:06:04;;;;;;;0.00;0.00;;;;;;;16.00;67.37;100987.59;7364104;19;20432;-62
2022/09/11 05:08:32;;;;;;;0.00;0.00;;;;;;;15.99;68.03;100996.44;7362903;19;20043;-61
2022/09/11 05:10:59;;;;;;;0.00;0.00;;;;;;;15.98;68.03;100995.56;7362412;19;20010;-62
2022/09/11 05:13:25;;;;;;;0.00;0.00;;;;;;;15.99;67.85;100991.16;7362799;19;20062;-62
2022/09/11 05:15:50;;;;;;;0.00;0.00;;;;;;;15.99;66.99;100993.78;7363952;19;20022;-62
2022/09/11 05:18:15;;;;;;;0.00;0.00;;;;;;;16.01;68.31;100990.16;7362626;19;20028;-61
2022/09/11 05:20:42;;;;;;;0.00;0.00;;;;;;;15.91;68.79;100973.00;7364633;19;20002;-62
2022/09/11 05:23:10;;;;;;;0.05;0.05;;;;;;;16.07;68.46;101004.88;7363071;19;20025;-62
2022/09/11 05:25:36;;;;;;;0.00;0.00;;;;;;;16.06;68.79;100995.25;7362575;19;20006;-61
2022/09/11 05:28:02;;;;;;;0.00;0.00;;;;;;;16.07;68.74;101002.25;7362471;19;20032;-61
2022/09/11 05:30:28;;;;;;;0.00;0.00;;;;;;;16.00;68.63;100983.19;7360352;19;20007;-62
2022/09/11 05:32:54;;;;;;;0.00;0.00;;;;;;;16.10;68.87;100996.84;7362592;19;20012;-62
2022/09/11 05:35:22;;;;;;;0.00;0.00;;;;;;;16.12;68.62;100992.38;7361211;19;20027;-61
2022/09/11 05:37:48;;;;;;;0.00;0.00;;;;;;;16.14;68.69;100993.16;7365480;19;20017;-62
2022/09/11 05:40:13;;;;;;;0.00;0.00;;;;;;;16.16;68.82;100991.31;7360840;19;20430;-61
2022/09/11 05:42:39;;;;;;;0.00;0.00;;;;;;;16.12;69.29;100987.13;7360706;19;20027;-62
2022/09/11 05:45:05;;;;;;;0.00;0.00;;;;;;;16.20;69.06;100990.28;7362218;19;20010;-62
2022/09/11 05:47:30;;;;;;;0.00;0.00;;;;;;;16.21;68.86;100981.44;7360908;19;20093;-61
2022/09/11 05:49:56;;;;;;;0.00;0.00;;;;;;;16.21;68.60;100978.81;7362514;19;20021;-61
2022/09/11 05:52:22;;;;;;;0.00;0.00;;;;;;;16.23;69.12;100978.75;7359781;19;20014;-61
2022/09/11 05:54:47;;;;;;;0.00;0.00;;;;;;;16.29;69.39;100984.63;7364203;19;20013;-61
2022/09/11 05:57:13;;;;;;;0.00;0.00;;;;;;;16.31;68.85;100971.38;7360979;19;20477;-61
2022/09/11 05:59:38;;;;;;;0.00;0.00;;;;;;;16.33;69.08;100975.69;7353309;19;20739;-61
2022/09/11 06:02:03;;;;;;;0.00;0.00;;;;;;;16.37;69.32;100975.53;7361969;19;20024;-61
2022/09/11 06:04:29;;;;;;;0.00;0.00;;;;;;;16.38;69.25;100972.00;7356106;19;20025;-61
2022/09/11 06:06:54;;;;;;;0.00;0.00;;;;;;;16.42;69.11;100968.28;7360280;19;20010;-61
2022/09/11 06:09:20;;;;;;;0.00;0.00;;;;;;;16.44;68.98;100967.31;7358176;19;20027;-61
2022/09/11 06:11:45;;;;;;;0.00;0.00;;;;;;;16.49;69.47;100967.13;7362836;19;20014;-61
2022/09/11 06:14:12;;;;;;;0.00;0.00;;;;;;;16.51;69.08;100974.03;7356423;19;20014;-62
2022/09/11 06:16:37;;;;;;;0.00;0.00;;;;;;;16.56;69.33;100977.31;7360389;19;20015;-61
2022/09/11 06:19:03;;;;;;;0.00;0.00;;;;;;;16.61;69.16;100969.22;7359495;19;20074;-61
2022/09/11 06:21:30;;;;;;;0.00;0.00;;;;;;;16.64;69.06;100966.44;7356464;19;20475;-62
2022/09/11 06:23:55;;;;;;;0.00;0.00;;;;;;;16.70;69.31;100967.97;7360394;19;20082;-62
2022/09/11 06:26:23;;;;;;;0.00;0.00;;;;;;;16.76;69.35;100960.66;7357377;19;20013;-61
2022/09/11 06:28:50;;;;;;;0.00;0.00;;;;;;;16.79;69.62;100963.19;7354517;19;20028;-61
2022/09/11 06:31:18;;;;;;;0.00;0.00;;;;;;;16.84;68.18;100961.19;7359022;19;20041;-61
2022/09/11 06:33:45;;;;;;;0.00;0.00;;;;;;;16.90;69.43;100959.19;7355711;19;20011;-61
2022/09/11 06:36:23;;;;;;;0.00;0.00;;;;;;;16.95;68.86;100963.34;7361727;19;20023;-61
2022/09/11 06:38:53;;;;;;;0.00;0.00;;;;;;;17.01;68.56;100963.06;7348617;19;20089;-62
2022/09/11 06:41:19;;;;;;;0.00;0.00;;;;;;;17.03;69.05;100966.50;7360145;19;20044;-62
2022/09/11 06:43:45;;;;;;;0.00;0.00;;;;;;;17.07;69.48;100961.91;7357091;19;20818;-62
2022/09/11 06:46:19;;;;;;;0.00;0.00;;;;;;;17.14;68.11;100960.72;7365380;19;20893;-61
2022/09/11 06:48:46;;;;;;;0.00;0.00;;;;;;;17.14;69.48;100952.81;7365566;19;20026;-61
2022/09/11 06:51:14;;;;;;;0.00;0.00;;;;;;;17.17;68.93;100970.28;7364291;19;20018;-61
2022/09/11 06:53:40;;;;;;;0.05;0.05;;;;;;;17.21;69.23;100959.50;7367906;19;20006;-61
2022/09/11 06:56:07;;;;;;;0.00;0.00;;;;;;;17.23;69.02;100962.94;7364581;19;20674;-61
2022/09/11 06:58:33;;;;;;;;;;;;;;;17.32;65.08;100967.78;7368061;19;20410;-62
2022/09/11 07:01:07;;;;;;;0.00;0.00;;;;;;;17.35;67.97;100961.53;7365192;19;19925;-61
2022/09/11 07:03:32;;;;;;;0.00;0.00;;;;;;;17.34;69.03;100963.31;7367808;19;20043;-62
2022/09/11 07:05:59;;;;;;;0.00;0.00;;;;;;;17.35;69.12;100957.09;7366295;19;20006;-61
2022/09/11 07:08:24;;;;;;;0.00;0.00;;;;;;;17.37;68.87;100964.94;7367957;19;20002;-61
2022/09/11 07:10:50;;;;;;;0.00;0.00;;;;;;;17.41;69.45;100970.94;7366378;19;20642;-61
2022/09/11 07:13:15;;;;;;;0.00;0.00;;;;;;;17.42;69.47;100970.84;7367880;19;20002;-62
2022/09/11 07:15:41;;;;;;;0.00;0.00;;;;;;;17.42;69.49;100962.09;7368178;19;20074;-61
2022/09/11 07:18:07;;;;;;;0.00;0.00;;;;;;;17.50;69.68;100968.72;7367717;19;20007;-62
2022/09/11 07:20:32;;;;;;;0.00;0.00;;;;;;;17.54;69.68;100961.53;7366562;19;20458;-62
2022/09/11 07:22:58;;;;;;;0.00;0.00;;;;;;;17.58;69.46;100963.06;7368276;19;20348;-62
2022/09/11 07:25:24;;;;;;;0.00;0.00;;;;;;;17.61;69.51;100962.94;7367135;19;21016;-61
2022/09/11 07:27:53;;;;;;;0.00;0.00;;;;;;;17.62;69.53;100964.63;7365694;19;20035;-61
2022/09/11 07:30:19;;;;;;;0.00;0.00;;;;;;;17.65;69.34;100964.50;7366914;19;20080;-61
2022/09/11 07:32:45;;;;;;;0.00;0.00;;;;;;;17.68;69.34;100963.47;7371351;19;20023;-61
2022/09/11 07:35:10;;;;;;;0.00;0.00;;;;;;;17.70;69.75;100957.22;7362764;19;20471;-61
2022/09/11 07:37:36;;;;;;;0.00;0.00;;;;;;;17.73;69.76;100951.78;7368956;19;20010;-61
2022/09/11 07:40:03;;;;;;;0.10;0.10;;;;;;;17.72;69.75;100944.78;7366238;19;20020;-61
2022/09/11 07:42:28;;;;;;;0.10;0.10;;;;;;;17.78;69.85;100944.50;7364323;19;20006;-61
2022/09/11 07:44:54;;;;;;;0.00;0.00;;;;;;;17.82;69.64;100950.50;7365941;19;20002;-61
2022/09/11 07:47:20;;;;;;;0.00;0.00;;;;;;;17.85;69.58;100948.56;7367864;19;20018;-62
2022/09/11 07:49:45;;;;;;;0.00;0.00;;;;;;;17.89;69.53;100947.50;7364802;19;20462;-61
2022/09/11 07:52:11;;;;;;;0.00;0.00;;;;;;;17.94;69.49;100933.19;7366022;19;20484;-62
2022/09/11 07:54:36;;;;;;;0.00;0.00;;;;;;;17.88;69.68;100924.63;7365862;19;20036;-62
2022/09/11 07:57:02;;;;;;;0.00;0.00;;;;;;;18.01;69.22;100940.75;7365524;19;20025;-61
2022/09/11 07:59:27;;;;;;;0.00;0.00;;;;;;;18.05;69.44;100930.88;7365887;19;20010;-61
2022/09/11 08:01:54;;;;;;;0.00;0.00;;;;;;;18.06;69.10;100936.09;7366978;19;20014;-61
2022/09/11 08:04:20;;;;;;;0.10;0.10;;;;;;;18.07;69.50;100918.44;7364123;19;20015;-62
2022/09/11 08:06:45;;;;;;;0.00;0.00;;;;;;;18.10;69.41;100926.22;7360797;19;20507;-61
2022/09/11 08:09:13;;;;;;;0.00;0.00;;;;;;;18.11;69.56;100925.28;7355121;19;20019;-61
2022/09/11 08:11:42;;;;;;;0.00;0.00;;;;;;;18.13;69.82;100923.41;7356567;19;20118;-62
2022/09/11 08:14:10;;;;;;;0.03;0.03;;;;;;;18.13;69.29;100913.69;7355808;19;20365;-62
2022/09/11 08:16:35;;;;;;;0.00;0.00;;;;;;;18.15;69.66;100911.84;7362745;19;20007;-61
2022/09/11 08:19:01;;;;;;;0.00;0.00;;;;;;;18.17;69.59;100914.41;7360180;19;20043;-62
2022/09/11 08:21:27;;;;;;;0.00;0.00;;;;;;;18.22;69.58;100915.00;7355586;19;20102;-61
2022/09/11 08:23:52;;;;;;;0.00;0.00;;;;;;;18.25;69.69;100914.88;7359776;19;20491;-61
2022/09/11 08:26:20;;;;;;;0.00;0.00;;;;;;;18.28;69.87;100914.69;7357213;19;20040;-61
2022/09/11 08:28:48;;;;;;;0.03;0.03;;;;;;;18.29;69.54;100913.75;7360426;19;20010;-62
2022/09/11 08:31:13;;;;;;;;;;;;;;;18.39;66.34;100907.06;7362467;19;20013;-61
2022/09/11 08:33:39;;;;;;;0.00;0.00;;;;;;;18.36;68.69;100903.75;7360904;19;20616;-62
2022/09/11 08:36:07;;;;;;;0.00;0.00;;;;;;;18.32;69.35;100887.16;7357982;19;20014;-61
2022/09/11 08:38:33;;;;;;;0.00;0.00;;;;;;;18.40;69.27;100900.00;7358761;19;20015;-61
2022/09/11 08:41:10;;;;;;;0.00;0.00;;;;;;;18.44;68.58;100890.97;7359964;19;20482;-62
2022/09/11 08:43:43;;;;;;;0.08;0.08;;;;;;;18.48;69.88;100894.31;7360993;19;20352;-62
2022/09/11 08:46:10;;;;;;;0.00;0.00;;;;;;;18.48;69.99;100886.38;7360489;19;20007;-61
2022/09/11 08:48:45;;;;;;;;;;;;;;;18.60;66.69;100885.72;7358195;19;20622;-61
2022/09/11 08:51:16;;;;;;;0.05;0.05;;;;;;;18.64;68.13;100884.63;7360616;19;19923;-60
2022/09/11 08:53:42;;;;;;;0.00;0.00;;;;;;;18.64;69.81;100879.31;7355335;19;20018;-61
2022/09/11 08:56:14;;;;;;;0.00;0.00;;;;;;;18.70;68.69;100881.66;7358369;19;20071;-62
2022/09/11 08:58:47;;;;;;;0.00;0.00;;;;;;;18.70;68.63;100873.72;7359074;19;20610;-62
2022/09/11 09:01:38;;;;;;;0.00;0.00;;;;;;;18.78;67.73;100883.91;7358972;19;20061;-62
2022/09/11 09:04:22;;;;;;;0.00;0.00;;;;;;;18.79;67.54;100886.47;7355010;19;20577;-61
2022/09/11 09:06:56;;;;;;;0.00;0.00;;;;;;;18.76;69.49;100886.66;7356106;19;20036;-61
2022/09/11 09:09:41;;;;;;;0.00;0.00;;;;;;;18.83;67.41;100893.31;7356935;19;20032;-62
2022/09/11 09:12:09;;;;;;;0.00;0.00;;;;;;;18.81;69.15;100891.69;7357225;19;20816;-61
2022/09/11 09:15:04;;;;;;;0.00;0.00;;;;;;;18.80;69.75;100888.19;7359932;19;20018;-61
2022/09/11 09:17:42;;;;;;;0.00;0.00;;;;;;;18.86;69.04;100893.16;7255482;19;2004577;-61
2022/09/11 09:20:12;;;;;;;0.00;0.00;;;;;;;18.86;70.10;100892.31;7356445;19;20367;-61
2022/09/11 09:22:49;;;;;;;0.00;0.00;;;;;;;18.90;69.15;100886.75;7360084;19;20023;-62
2022/09/11 09:25:19;;;;;;;0.00;0.00;;;;;;;18.90;69.22;100886.75;7359338;19;20002;-61
2022/09/11 09:27:48;;;;;;;0.03;0.03;;;;;;;18.93;69.96;100885.72;7355484;19;20011;-61
2022/09/11 09:30:26;;;;;;;0.08;0.08;;;;;;;18.97;69.59;100878.50;7350672;19;20014;-61
2022/09/11 09:33:10;;;;;;;0.00;0.00;;;;;;;19.01;69.00;100874.72;7357553;19;20599;-61
2022/09/11 09:35:41;;;;;;;0.00;0.00;;;;;;;19.02;69.61;100877.28;7354551;19;20006;-61
2022/09/11 09:38:20;;;;;;;0.00;0.00;;;;;;;18.98;69.12;100865.16;7358123;19;20006;-61
2022/09/11 09:41:05;;;;;;;0.00;0.00;;;;;;;19.14;68.59;100871.31;7353797;19;20006;-62
2022/09/11 09:43:52;;;;;;;0.00;0.00;;;;;;;19.20;69.40;100872.75;7354598;19;20003;-61
2022/09/11 09:46:33;;;;;;;0.00;0.00;;;;;;;19.25;69.39;100864.56;7350228;19;20036;-62
2022/09/11 09:49:00;;;;;;;0.00;0.00;;;;;;;19.28;70.02;100861.75;7353652;19;20006;-62
2022/09/11 09:51:25;;;;;;;0.00;0.00;;;;;;;19.35;69.94;100863.94;7351845;19;20025;-62
2022/09/11 09:53:59;;;;;;;0.00;0.00;;;;;;;19.45;69.07;100870.44;7353042;19;20509;-61
2022/09/11 09:56:25;;;;;;;0.10;0.10;;;;;;;19.48;69.78;100863.28;7347536;19;20014;-62
2022/09/11 09:59:12;;;;;;;0.00;0.00;;;;;;;19.58;68.39;100856.50;7349372;19;20025;-62
2022/09/11 10:01:46;;;;;;;0.10;0.10;;;;;;;19.62;68.86;100852.78;7250382;19;2004618;-61
2022/09/11 10:04:14;;;;;;;0.00;0.00;;;;;;;19.64;69.85;100853.53;7351879;19;20021;-62
2022/09/11 10:06:40;;;;;;;0.00;0.00;;;;;;;19.69;69.66;100851.47;7351942;19;20018;-61
2022/09/11 10:09:24;;;;;;;0.00;0.00;;;;;;;19.72;68.50;100831.88;7343997;19;20010;-61
2022/09/11 10:11:57;;;;;;;0.00;0.00;;;;;;;19.81;68.34;100834.84;7355317;19;20028;-61
2022/09/11 10:14:22;;;;;;;0.00;0.00;;;;;;;19.81;68.83;100834.84;7358361;19;20026;-61
2022/09/11 10:16:49;;;;;;;0.00;0.00;;;;;;;19.79;68.55;100826.13;7347519;19;20030;-61
2022/09/11 10:19:42;;;;;;;0.00;0.00;;;;;;;19.91;67.00;100830.69;7357979;19;20017;-61
2022/09/11 10:22:34;;;;;;;0.00;0.00;;;;;;;19.91;66.66;100832.50;7258107;19;2004604;-62
2022/09/11 10:25:04;;;;;;;0.10;0.10;;;;;;;19.82;69.53;100833.91;7263635;19;2004521;-62
2022/09/11 10:27:34;;;;;;;0.00;0.00;;;;;;;19.71;69.12;100809.81;7361093;19;20014;-61
2022/09/11 10:30:01;;;;;;;0.00;0.00;;;;;;;19.75;70.20;100823.75;7360384;19;20022;-61
2022/09/11 10:32:27;;;;;;;0.10;0.10;;;;;;;19.69;70.69;100822.31;7361882;19;20045;-61
2022/09/11 10:34:54;;;;;;;0.00;0.00;;;;;;;19.65;70.58;100834.03;7360666;19;20017;-61
2022/09/11 10:37:26;;;;;;;0.03;0.03;;;;;;;19.60;71.08;100825.50;7354392;19;20029;-61
2022/09/11 10:40:02;;;;;;;0.10;0.10;;;;;;;19.49;71.17;100822.59;7360158;19;20021;-61
2022/09/11 10:42:30;;;;;;;0.00;0.00;;;;;;;19.41;72.03;100815.97;7361537;19;20371;-62
2022/09/11 10:45:09;;;;;;;0.00;0.00;;;;;;;19.37;71.51;100819.72;7362254;19;20017;-61
2022/09/11 10:47:35;;;;;;;0.00;0.00;;;;;;;19.25;72.27;100815.09;7364324;19;20014;-62
2022/09/11 10:50:20;;;;;;;0.10;0.10;;;;;;;19.08;68.93;100788.75;7366357;19;20017;-62
2022/09/11 10:52:56;;;;;;;0.10;0.10;;;;;;;19.11;71.63;100812.38;7261118;19;2004584;-63
2022/09/11 10:55:27;;;;;;;0.00;0.00;;;;;;;18.99;72.56;100799.84;7365174;19;20007;-63
2022/09/11 10:57:54;;;;;;;0.00;0.00;;;;;;;18.89;73.83;100796.88;7371615;19;20014;-62
2022/09/11 11:00:21;;;;;;;;;;;;;;;18.87;68.63;100788.16;7373320;19;20049;-63
2022/09/11 11:02:51;;;;;;;0.00;0.00;;;;;;;18.68;73.58;100769.81;7374108;19;19923;-62
2022/09/11 11:05:26;;;;;;;0.00;0.00;;;;;;;18.70;73.54;100786.44;7371704;19;20010;-63
2022/09/11 11:08:13;;;;;;;0.00;0.00;;;;;;;18.63;73.49;100777.97;7373874;19;20002;-63
2022/09/11 11:55:20;;;;;;;0.00;0.00;;;;;;;17.75;74.76;100690.25;7393350;19;20036;-62
2022/09/11 11:58:09;;;;;;;0.00;0.00;;;;;;;17.72;72.49;100688.56;7359181;19;20359;-62
2022/09/11 12:00:43;;;;;;;0.00;0.00;;;;;;;17.68;75.06;100675.59;7357607;19;20014;-62
2022/09/11 12:03:14;;;;;;;0.00;0.00;;;;;;;17.63;75.73;100673.22;7359300;19;20018;-62
2022/09/11 12:05:40;;;;;;;0.00;0.00;;;;;;;17.61;75.50;100661.88;7361899;19;20482;-62
2022/09/11 12:08:12;;;;;;;0.00;0.00;;;;;;;17.63;74.71;100670.56;7363069;19;20021;-62
2022/09/11 12:10:40;;;;;;;0.00;0.00;;;;;;;17.61;75.77;100667.16;7356624;19;20014;-62
2022/09/11 12:13:12;;;;;;;0.00;0.00;;;;;;;17.62;75.35;100671.50;7348103;19;20010;-62
2022/09/11 12:15:38;;;;;;;0.00;0.00;;;;;;;17.55;75.62;100651.66;7354780;19;20014;-62
2022/09/11 12:18:23;;;;;;;0.00;0.00;;;;;;;17.66;73.19;100665.13;7362767;19;20153;-61
2022/09/11 12:20:48;;;;;;;0.00;0.00;;;;;;;17.63;74.34;100660.00;7370227;19;20053;-62
2022/09/11 12:23:29;;;;;;;0.00;0.00;;;;;;;17.66;74.31;100670.41;7361332;19;20474;-62